Time;durP1;ratioP1;P1;durP2;ratioP2;P2;SDS_P1;SDS_P2;PMS_P1;PMS_P2;Temp;Humidity;BMP_temperature;BMP_pressure;BME280_temperature;BME280_humidity;BME280_pressure;Samples;Min_cycle;Max_cycle;Signal;HPM_P1;HPM_P2
2022/08/30 00:01:01;;;;;;;6.63;3.72;;;22.50;99.90;;;;;;4862872;29;20062;-92
2022/08/30 00:02:01;;;;;;;7.35;3.75;;;22.50;99.90;;;;;;4878688;29;20044;-93
2022/08/30 00:04:29;;;;;;;6.10;3.78;;;22.40;99.90;;;;;;4863448;29;20052;-96
2022/08/30 00:06:56;;;;;;;10.40;4.15;;;22.40;99.90;;;;;;4877374;29;20049;-93
2022/08/30 00:09:24;;;;;;;7.30;4.05;;;22.40;99.90;;;;;;4858184;29;20509;-93
2022/08/30 00:11:51;;;;;;;6.50;4.00;;;22.40;99.90;;;;;;4865137;29;20051;-93
2022/08/30 00:14:19;;;;;;;6.43;3.75;;;22.40;99.90;;;;;;4864306;29;20052;-93
2022/08/30 00:16:46;;;;;;;5.35;3.70;;;22.40;99.90;;;;;;4862696;29;20060;-95
2022/08/30 00:19:14;;;;;;;7.85;4.45;;;22.30;99.90;;;;;;4859932;29;20097;-94
2022/08/30 00:21:41;;;;;;;7.00;4.68;;;22.40;99.90;;;;;;4881070;29;20438;-93
2022/08/30 00:24:08;;;;;;;6.63;4.50;;;22.40;99.90;;;;;;4861528;29;20052;-92
2022/08/30 00:26:36;;;;;;;7.45;4.60;;;22.30;99.90;;;;;;4863179;29;20045;-94
2022/08/30 00:29:04;;;;;;;6.80;4.22;;;22.30;99.90;;;;;;4861593;29;20111;-94
2022/08/30 00:31:31;;;;;;;9.07;4.85;;;22.30;99.90;;;;;;4866065;29;20053;-94
2022/08/30 00:33:59;;;;;;;7.40;4.32;;;22.30;99.90;;;;;;4862957;29;20144;-96
2022/08/30 00:36:26;;;;;;;8.32;5.32;;;22.30;99.90;;;;;;4877955;29;20049;-94
2022/08/30 00:38:54;;;;;;;7.35;3.92;;;22.30;99.90;;;;;;4882371;29;20131;-91
2022/08/30 00:41:22;;;;;;;8.55;5.00;;;22.30;99.90;;;;;;4879620;29;20053;-92
2022/08/30 00:43:49;;;;;;;8.27;4.65;;;22.20;99.90;;;;;;4869325;29;20049;-94
2022/08/30 00:46:17;;;;;;;9.25;5.25;;;22.20;99.90;;;;;;4867969;29;20048;-94
2022/08/30 00:48:48;;;;;;;8.40;4.03;;;22.20;99.90;;;;;;4867558;29;20052;-93
2022/08/30 00:51:17;;;;;;;8.55;4.88;;;22.20;99.90;;;;;;4865843;29;20084;-92
2022/08/30 00:53:55;;;;;;;9.18;4.18;;;22.20;99.90;;;;;;4877665;29;20650;-94
2022/08/30 00:56:24;;;;;;;8.90;4.50;;;22.20;99.90;;;;;;4866218;29;20054;-94
2022/08/30 00:58:55;;;;;;;8.32;4.72;;;22.20;99.90;;;;;;4864023;29;20048;-93
2022/08/30 01:01:24;;;;;;;7.32;4.38;;;22.20;99.90;;;;;;4862997;29;20410;-94
2022/08/30 01:03:52;;;;;;;8.23;5.38;;;22.10;99.90;;;;;;4883725;29;20041;-90
2022/08/30 01:06:20;;;;;;;7.95;4.63;;;22.10;99.90;;;;;;4883490;29;20040;-92
2022/08/30 01:08:47;;;;;;;9.60;5.18;;;22.10;99.90;;;;;;4867082;29;20357;-96
2022/08/30 01:11:19;;;;;;;7.68;4.45;;;22.10;99.90;;;;;;4866513;29;20502;-94
2022/08/30 01:13:49;;;;;;;8.93;5.68;;;22.10;99.90;;;;;;4867164;29;20044;-93
2022/08/30 01:16:17;;;;;;;9.48;4.47;;;22.10;99.90;;;;;;4862193;29;20463;-93
2022/08/30 01:18:46;;;;;;;8.77;4.93;;;22.10;99.90;;;;;;4878593;29;20044;-94
2022/08/30 01:22:00;;;;;;;8.10;4.78;;;22.10;99.80;;;;;;4864717;29;20047;-94
2022/08/30 01:24:29;;;;;;;7.60;5.10;;;22.00;99.60;;;;;;4878762;29;20040;-95
2022/08/30 01:26:57;;;;;;;7.88;5.03;;;22.00;99.70;;;;;;4866364;29;20444;-93
2022/08/30 01:29:25;;;;;;;9.27;5.25;;;22.00;99.80;;;;;;4864400;29;20076;-94
2022/08/30 01:31:53;;;;;;;10.55;5.80;;;22.00;99.80;;;;;;4868628;29;20501;-92
2022/08/30 01:34:21;;;;;;;9.90;5.72;;;21.90;99.50;;;;;;4865325;29;20048;-96
2022/08/30 01:36:49;;;;;;;8.82;5.63;;;21.90;99.60;;;;;;4867860;29;20559;-96
2022/08/30 01:39:18;;;;;;;9.23;5.28;;;21.80;99.90;;;;;;4870876;29;20130;-95
2022/08/30 01:41:46;;;;;;;11.88;6.05;;;21.60;99.90;;;;;;4866738;29;20045;-95
2022/08/30 01:44:14;;;;;;;8.45;4.97;;;21.60;99.90;;;;;;4867638;29;20140;-92
2022/08/30 01:46:46;;;;;;;8.35;5.25;;;21.60;99.90;;;;;;4863914;29;20049;-92
2022/08/30 01:49:17;;;;;;;10.80;5.38;;;21.70;99.90;;;;;;4864469;29;20059;-93
2022/08/30 01:51:54;;;;;;;7.45;4.82;;;21.80;99.90;;;;;;4867558;29;20059;-93
2022/08/30 01:54:31;;;;;;;10.02;5.03;;;21.70;99.90;;;;;;4865130;29;20052;-94
2022/08/30 01:57:08;;;;;;;11.80;5.38;;;21.60;99.90;;;;;;4862391;29;20056;-93
2022/08/30 01:59:38;;;;;;;8.43;4.93;;;21.60;99.90;;;;;;4864688;29;20044;-94
2022/08/30 02:02:06;;;;;;;12.90;6.55;;;21.60;99.90;;;;;;4862213;29;20059;-95
2022/08/30 02:04:35;;;;;;;9.23;5.22;;;21.60;99.90;;;;;;4863128;29;20105;-95
2022/08/30 02:07:04;;;;;;;8.25;5.35;;;21.50;99.90;;;;;;4868128;29;20045;-96
2022/08/30 02:09:31;;;;;;;10.30;6.07;;;21.50;99.90;;;;;;4867307;29;20052;-93
2022/08/30 02:11:59;;;;;;;8.20;5.05;;;21.40;99.90;;;;;;4879484;29;20096;-95
2022/08/30 02:14:27;;;;;;;10.50;6.05;;;21.50;99.90;;;;;;4882045;29;20040;-92
2022/08/30 02:16:55;;;;;;;10.80;5.57;;;21.60;99.90;;;;;;4880370;29;20140;-93
2022/08/30 02:19:23;;;;;;;9.93;5.63;;;21.60;99.90;;;;;;4857562;29;20045;-94
2022/08/30 02:21:50;;;;;;;8.98;5.75;;;21.60;99.90;;;;;;4880910;29;20078;-94
2022/08/30 02:24:17;;;;;;;7.57;5.13;;;21.60;99.90;;;;;;4863641;29;20041;-93
2022/08/30 02:26:45;;;;;;;9.15;5.53;;;21.60;99.90;;;;;;4864404;29;20044;-94
2022/08/30 02:29:13;;;;;;;8.80;5.35;;;21.60;99.90;;;;;;4856841;29;20152;-93
2022/08/30 02:31:40;;;;;;;10.15;5.28;;;21.60;99.90;;;;;;4863468;29;20053;-92
2022/08/30 02:34:08;;;;;;;8.90;5.38;;;21.50;99.90;;;;;;4865451;29;20048;-94
2022/08/30 02:36:35;;;;;;;8.10;5.10;;;21.50;99.90;;;;;;4865261;29;20068;-95
2022/08/30 02:39:03;;;;;;;10.27;5.68;;;21.50;99.90;;;;;;4865675;29;20052;-94
2022/08/30 02:41:30;;;;;;;8.85;5.38;;;21.40;99.90;;;;;;4869594;29;20053;-93
2022/08/30 02:43:59;;;;;;;8.57;5.63;;;21.40;99.90;;;;;;4868806;29;20037;-93
2022/08/30 02:46:27;;;;;;;8.18;4.93;;;21.40;99.90;;;;;;4866861;29;20152;-92
2022/08/30 02:49:00;;;;;;;10.95;5.72;;;21.40;99.90;;;;;;4864182;29;20388;-93
2022/08/30 02:51:48;;;;;;;9.45;5.18;;;21.40;99.90;;;;;;4866649;29;20127;-93
2022/08/30 02:54:18;;;;;;;9.20;5.63;;;21.30;99.90;;;;;;4865502;29;20076;-92
2022/08/30 02:56:47;;;;;;;9.07;5.70;;;21.30;99.90;;;;;;4866573;29;20565;-93
2022/08/30 02:59:17;;;;;;;11.30;5.80;;;21.30;99.90;;;;;;4856873;29;20045;-92
2022/08/30 03:01:44;;;;;;;9.23;5.32;;;21.30;99.90;;;;;;4876781;29;20049;-93
2022/08/30 03:04:12;;;;;;;11.60;6.30;;;21.20;99.90;;;;;;4865567;29;20056;-93
2022/08/30 03:06:39;;;;;;;12.85;6.30;;;21.20;99.90;;;;;;4877958;29;20045;-92
2022/08/30 03:09:07;;;;;;;12.27;6.45;;;21.20;99.90;;;;;;4857171;29;20072;-92
2022/08/30 03:11:34;;;;;;;9.48;5.70;;;21.20;99.90;;;;;;4882391;29;20053;-93
2022/08/30 03:14:02;;;;;;;10.68;5.95;;;21.20;99.90;;;;;;4861976;29;20048;-94
2022/08/30 03:16:30;;;;;;;10.43;5.38;;;21.20;99.90;;;;;;4862966;29;20458;-93
2022/08/30 03:18:57;;;;;;;9.23;5.72;;;21.10;99.90;;;;;;4858812;29;20062;-93
2022/08/30 03:21:25;;;;;;;9.82;5.78;;;21.10;99.90;;;;;;4860495;29;20059;-93
2022/08/30 03:23:52;;;;;;;9.43;5.63;;;21.10;99.90;;;;;;4875482;29;20105;-94
2022/08/30 03:26:20;;;;;;;8.57;5.28;;;21.10;99.90;;;;;;4861561;29;20044;-93
2022/08/30 03:28:47;;;;;;;11.63;5.80;;;21.10;99.90;;;;;;4865976;29;20427;-93
2022/08/30 03:31:14;;;;;;;11.00;5.28;;;21.10;99.90;;;;;;4878797;29;20049;-92
2022/08/30 03:33:42;;;;;;;9.15;5.32;;;21.10;99.90;;;;;;4861727;29;20060;-93
2022/08/30 03:36:11;;;;;;;10.80;5.60;;;21.10;99.90;;;;;;4875549;29;20414;-93
2022/08/30 03:38:38;;;;;;;8.60;5.35;;;21.10;99.90;;;;;;4860613;29;20044;-93
2022/08/30 03:41:06;;;;;;;7.85;4.93;;;21.10;99.90;;;;;;4866391;29;20075;-93
2022/08/30 03:43:35;;;;;;;9.30;5.63;;;21.10;99.90;;;;;;4861255;29;20044;-94
2022/08/30 03:46:03;;;;;;;8.30;5.40;;;21.10;99.90;;;;;;4850871;29;20099;-95
2022/08/30 03:48:30;;;;;;;9.63;6.10;;;21.10;99.90;;;;;;4857449;29;20061;-94
2022/08/30 03:50:58;;;;;;;9.52;5.60;;;21.10;99.90;;;;;;4851033;29;20044;-96
2022/08/30 03:53:25;;;;;;;8.70;5.43;;;21.00;99.90;;;;;;4848442;29;20144;-94
2022/08/30 03:55:53;;;;;;;8.68;5.63;;;21.10;99.90;;;;;;4859086;29;20049;-93
2022/08/30 03:58:23;;;;;;;10.57;5.60;;;21.00;99.90;;;;;;4841469;29;20707;-91
2022/08/30 04:00:51;;;;;;;8.40;5.10;;;21.10;99.90;;;;;;4855314;29;20037;-94
2022/08/30 04:03:24;;;;;;;10.55;5.43;;;21.10;99.90;;;;;;4848853;29;20041;-95
2022/08/30 04:05:54;;;;;;;12.15;5.88;;;21.00;99.90;;;;;;4862883;29;21288;-95
2022/08/30 04:08:24;;;;;;;9.13;5.35;;;21.10;99.90;;;;;;4855988;29;20113;-96
2022/08/30 04:10:52;;;;;;;12.32;5.95;;;21.00;99.90;;;;;;4860977;29;20045;-95
2022/08/30 04:13:21;;;;;;;13.00;5.50;;;21.00;99.90;;;;;;4850003;29;20151;-96
2022/08/30 04:15:49;;;;;;;13.02;5.25;;;21.00;99.90;;;;;;4865928;29;20057;-95
2022/08/30 04:18:16;;;;;;;10.23;5.38;;;21.00;99.90;;;;;;4851292;29;20053;-94
2022/08/30 04:20:44;;;;;;;9.27;5.20;;;21.00;99.90;;;;;;4856215;29;20048;-96
2022/08/30 04:23:12;;;;;;;9.38;5.63;;;21.10;99.90;;;;;;4845511;29;20045;-93
2022/08/30 04:25:41;;;;;;;7.65;5.15;;;21.10;99.90;;;;;;4862495;29;20065;-95
2022/08/30 04:28:09;;;;;;;9.23;5.63;;;21.00;99.90;;;;;;4843285;29;20056;-92
2022/08/30 04:30:41;;;;;;;8.80;5.57;;;21.10;99.90;;;;;;4841144;29;20518;-96
2022/08/30 04:33:10;;;;;;;12.75;5.90;;;21.00;99.90;;;;;;4843344;29;20053;-96
2022/08/30 04:35:47;;;;;;;11.73;6.40;;;21.10;99.90;;;;;;4864933;29;20052;-95
2022/08/30 04:38:16;;;;;;;10.50;5.55;;;21.10;99.90;;;;;;4855202;29;20090;-90
2022/08/30 04:40:47;;;;;;;9.88;5.30;;;21.10;99.90;;;;;;4848284;29;20045;-93
2022/08/30 04:43:15;;;;;;;10.60;6.18;;;21.10;99.90;;;;;;4847563;29;20049;-96
2022/08/30 04:45:43;;;;;;;10.48;6.07;;;21.10;99.90;;;;;;4864957;29;20055;-96
2022/08/30 04:48:10;;;;;;;9.05;5.10;;;21.10;99.90;;;;;;4870898;29;20060;-96
2022/08/30 04:50:38;;;;;;;13.10;6.32;;;21.10;99.70;;;;;;4866146;29;20136;-95
2022/08/30 04:53:14;;;;;;;8.18;5.88;;;21.10;99.80;;;;;;4868871;29;20052;-94
2022/08/30 04:55:42;;;;;;;9.40;5.73;;;21.20;99.50;;;;;;4883747;29;20498;-96
2022/08/30 04:58:10;;;;;;;11.88;4.93;;;21.20;99.10;;;;;;4880648;29;20414;-95
2022/08/30 05:00:40;;;;;;;12.25;6.25;;;21.20;99.10;;;;;;4875105;29;20062;-96
2022/08/30 05:03:08;;;;;;;12.63;6.00;;;21.20;99.30;;;;;;4884225;29;20056;-93
2022/08/30 05:05:38;;;;;;;9.32;5.25;;;21.20;99.20;;;;;;4881285;29;20049;-96
2022/08/30 05:08:08;;;;;;;9.27;5.47;;;21.20;98.50;;;;;;4876515;29;20581;-95
2022/08/30 05:10:43;;;;;;;9.30;5.75;;;21.20;98.00;;;;;;4880584;29;20497;-96
2022/08/30 05:13:11;;;;;;;9.60;5.15;;;21.20;97.40;;;;;;4883594;29;20052;-94
2022/08/30 05:15:39;;;;;;;10.05;5.55;;;21.30;97.40;;;;;;4866435;29;20045;-93
2022/08/30 05:18:08;;;;;;;8.20;4.80;;;21.30;96.90;;;;;;4866685;29;20114;-91
2022/08/30 05:20:40;;;;;;;8.57;4.97;;;21.30;96.70;;;;;;4880795;29;20554;-93
2022/08/30 05:23:08;;;;;;;7.40;4.82;;;21.30;96.10;;;;;;4881224;29;20509;-93
2022/08/30 05:25:39;;;;;;;8.38;5.47;;;21.30;95.20;;;;;;4874911;29;20032;-94
2022/08/30 05:28:08;;;;;;;9.60;5.35;;;21.30;95.10;;;;;;4867033;29;20048;-89
2022/08/30 05:30:37;;;;;;;10.80;5.40;;;21.40;95.00;;;;;;4867314;29;20056;-92
2022/08/30 05:33:04;;;;;;;9.23;4.68;;;21.40;94.30;;;;;;4878489;29;20053;-86
2022/08/30 05:35:32;;;;;;;9.75;4.88;;;21.40;94.00;;;;;;4880187;29;20055;-95
2022/08/30 05:38:00;;;;;;;10.45;5.63;;;21.40;94.20;;;;;;4868697;29;20048;-92
2022/08/30 05:40:28;;;;;;;8.90;4.95;;;21.50;93.60;;;;;;4879308;29;20502;-90
2022/08/30 05:42:57;;;;;;;6.32;4.20;;;21.40;93.00;;;;;;4864369;29;20056;-95
2022/08/30 05:45:25;;;;;;;12.05;5.65;;;21.50;92.80;;;;;;4876506;29;20120;-95
2022/08/30 05:47:53;;;;;;;9.18;4.82;;;21.50;92.70;;;;;;4869895;29;20052;-93
2022/08/30 05:50:20;;;;;;;9.70;4.82;;;21.60;92.90;;;;;;4853397;29;20041;-95
2022/08/30 05:52:48;;;;;;;8.52;4.80;;;21.80;93.40;;;;;;4865098;29;20049;-96
2022/08/30 05:55:17;;;;;;;9.93;5.22;;;21.80;92.40;;;;;;4878326;29;20052;-94
2022/08/30 05:58:24;;;;;;;8.73;4.47;;;21.80;91.50;;;;;;4826879;29;20061;-96
2022/08/30 06:00:53;;;;;;;8.07;4.60;;;21.90;91.30;;;;;;4827103;29;20050;-93
2022/08/30 06:03:38;;;;;;;8.70;5.05;;;21.90;91.10;;;;;;4825091;29;20058;-96
2022/08/30 06:06:06;;;;;;;11.43;4.55;;;22.00;90.70;;;;;;4828698;29;20457;-95
2022/08/30 06:08:33;;;;;;;10.45;5.53;;;22.10;90.40;;;;;;4821601;29;20058;-94
2022/08/30 06:11:06;;;;;;;9.05;4.70;;;22.20;89.80;;;;;;4842503;29;20050;-95
2022/08/30 06:13:33;;;;;;;6.63;4.00;;;22.30;89.10;;;;;;4823166;29;20049;-96
2022/08/30 06:16:01;;;;;;;7.28;4.50;;;22.50;87.80;;;;;;4824195;29;20060;-94
2022/08/30 06:18:37;;;;;;;9.68;3.30;;;22.70;87.30;;;;;;4816537;29;20053;-93
2022/08/30 06:21:05;;;;;;;5.25;3.70;;;22.70;85.80;;;;;;4828833;29;20041;-93
2022/08/30 06:23:32;;;;;;;7.07;3.63;;;22.90;85.20;;;;;;4812813;29;20053;-95
2022/08/30 06:26:07;;;;;;;7.85;4.10;;;22.90;85.10;;;;;;4843713;29;20042;-96
2022/08/30 06:28:36;;;;;;;10.20;3.65;;;22.80;84.10;;;;;;4847202;29;20149;-92
2022/08/30 06:31:08;;;;;;;6.30;3.60;;;22.70;83.10;;;;;;4826397;29;20045;-93
2022/08/30 06:33:37;;;;;;;7.68;3.53;;;22.90;84.00;;;;;;4844597;29;20043;-94
2022/08/30 06:36:06;;;;;;;7.55;3.35;;;22.90;83.40;;;;;;4828999;29;20049;-93
2022/08/30 06:38:37;;;;;;;5.93;3.40;;;22.90;81.00;;;;;;4841730;29;20049;-96
2022/08/30 06:41:17;;;;;;;8.27;3.20;;;22.70;79.60;;;;;;4852832;29;20502;-94
2022/08/30 06:43:45;;;;;;;5.78;3.38;;;22.80;82.10;;;;;;4840173;29;20152;-96
2022/08/30 06:46:19;;;;;;;5.97;3.08;;;22.70;78.80;;;;;;4846798;29;20046;-91
2022/08/30 06:48:48;;;;;;;6.28;3.00;;;22.70;78.90;;;;;;4851225;29;20045;-95
2022/08/30 06:51:23;;;;;;;6.03;3.15;;;22.70;77.90;;;;;;4848067;29;20037;-88
2022/08/30 06:53:52;;;;;;;6.97;2.53;;;22.70;77.70;;;;;;4866059;29;20049;-95
2022/08/30 06:56:23;;;;;;;7.20;3.83;;;22.80;78.60;;;;;;4853029;29;20053;-94
2022/08/30 06:58:51;;;;;;;6.43;3.60;;;22.80;77.20;;;;;;4849430;29;20053;-96
2022/08/30 07:01:22;;;;;;;7.60;2.78;;;22.80;76.50;;;;;;4846370;29;20045;-95
2022/08/30 07:03:54;;;;;;;6.85;2.50;;;22.80;75.70;;;;;;4850337;29;20080;-95
2022/08/30 07:06:22;;;;;;;5.43;2.95;;;22.80;75.70;;;;;;4851119;29;20069;-96
2022/08/30 07:08:50;;;;;;;6.18;2.78;;;22.90;75.70;;;;;;4853110;29;20045;-96
2022/08/30 07:11:36;;;;;;;4.32;2.60;;;23.00;76.40;;;;;;4815286;29;20472;-96
2022/08/30 07:14:05;;;;;;;5.40;2.60;;;23.00;76.60;;;;;;4810858;29;20109;-96
2022/08/30 07:16:33;;;;;;;4.80;2.75;;;23.10;75.80;;;;;;4798661;29;20050;-93
2022/08/30 07:19:04;;;;;;;4.10;2.25;;;23.10;75.10;;;;;;4811513;29;20067;-95
2022/08/30 07:21:36;;;;;;;6.35;2.92;;;23.10;74.60;;;;;;4808656;29;20053;-95
2022/08/30 07:24:05;;;;;;;3.50;2.05;;;23.20;76.00;;;;;;4793873;29;20106;-96
2022/08/30 07:26:41;;;;;;;3.47;2.47;;;23.20;74.80;;;;;;4809962;29;20122;-96
2022/08/30 07:29:10;;;;;;;6.57;2.70;;;23.30;76.50;;;;;;4812502;29;20061;-96
2022/08/30 07:31:38;;;;;;;4.10;2.13;;;23.40;75.00;;;;;;4787824;29;20046;-94
2022/08/30 07:34:06;;;;;;;5.82;2.28;;;23.40;74.10;;;;;;4804578;29;20138;-96
2022/08/30 07:36:35;;;;;;;6.30;2.20;;;23.40;73.90;;;;;;4805609;29;20054;-93
2022/08/30 07:39:04;;;;;;;7.00;2.65;;;23.40;75.40;;;;;;4789602;29;20110;-94
2022/08/30 07:41:34;;;;;;;4.50;2.58;;;23.50;76.00;;;;;;4817056;29;20517;-95
2022/08/30 07:44:02;;;;;;;4.57;2.67;;;23.50;75.80;;;;;;4846502;29;20069;-95
2022/08/30 07:46:29;;;;;;;5.35;2.42;;;23.50;74.20;;;;;;4859396;29;20059;-96
2022/08/30 07:48:59;;;;;;;8.85;3.40;;;23.70;73.80;;;;;;4867818;29;20040;-96
2022/08/30 07:51:30;;;;;;;2.97;1.90;;;23.60;71.70;;;;;;4866416;29;20143;-95
2022/08/30 07:53:58;;;;;;;4.18;2.58;;;23.70;73.70;;;;;;4864822;29;20061;-96
2022/08/30 07:56:26;;;;;;;6.88;2.78;;;23.80;73.30;;;;;;4861114;29;20056;-95
2022/08/30 07:58:53;;;;;;;5.25;2.88;;;23.80;73.30;;;;;;4864580;29;20120;-94
2022/08/30 08:01:22;;;;;;;5.30;2.58;;;23.90;73.80;;;;;;4870065;29;20057;-95
2022/08/30 08:03:50;;;;;;;4.97;2.70;;;24.10;72.60;;;;;;4862097;29;20052;-95
2022/08/30 08:06:20;;;;;;;7.55;2.42;;;24.20;72.80;;;;;;4873005;29;20037;-96
2022/08/30 08:08:49;;;;;;;4.30;2.40;;;24.30;70.40;;;;;;4873083;29;20557;-93
2022/08/30 08:11:23;;;;;;;5.60;2.78;;;24.30;70.80;;;;;;4871434;29;20045;-96
2022/08/30 08:13:57;;;;;;;4.47;2.70;;;24.30;71.90;;;;;;4868306;29;20049;-95
2022/08/30 08:16:27;;;;;;;8.02;2.90;;;24.30;72.30;;;;;;4871802;29;20057;-96
2022/08/30 08:18:55;;;;;;;3.90;2.35;;;24.30;71.40;;;;;;4873275;29;20073;-96
2022/08/30 08:21:25;;;;;;;4.00;2.50;;;24.30;71.10;;;;;;4861703;29;20040;-96
2022/08/30 08:23:52;;;;;;;4.80;2.22;;;24.30;70.20;;;;;;4895562;24;20499;-94
2022/08/30 08:26:21;;;;;;;5.70;3.00;;;24.30;70.80;;;;;;4842299;29;20801;-96
2022/08/30 08:28:49;;;;;;;3.83;2.17;;;24.40;71.00;;;;;;4851145;29;20054;-95
2022/08/30 08:31:26;;;;;;;4.95;2.45;;;24.50;70.40;;;;;;4868967;29;20033;-96
2022/08/30 08:34:04;;;;;;;4.18;2.33;;;24.60;69.60;;;;;;4875583;24;20049;-96
2022/08/30 08:36:34;;;;;;;5.78;2.17;;;24.70;69.40;;;;;;4867077;29;20136;-95
2022/08/30 08:39:03;;;;;;;7.72;2.92;;;24.60;68.10;;;;;;4876226;29;20072;-93
2022/08/30 08:41:50;;;;;;;4.90;2.20;;;24.60;68.50;;;;;;4854446;29;20052;-96
2022/08/30 08:44:39;;;;;;;4.85;1.90;;;24.40;68.70;;;;;;4857156;29;20049;-94
2022/08/30 08:47:36;;;;;;;4.30;1.98;;;24.40;67.20;;;;;;4856518;29;20057;-95
2022/08/30 08:50:11;;;;;;;3.13;1.50;;;24.50;68.40;;;;;;4846132;29;20057;-94
2022/08/30 08:53:36;;;;;;;3.90;1.85;;;24.70;66.10;;;;;;4843755;29;20048;-95
2022/08/30 08:56:15;;;;;;;3.47;1.50;;;24.60;63.90;;;;;;4863816;29;20053;-96
2022/08/30 08:58:46;;;;;;;3.92;2.33;;;24.70;65.30;;;;;;4859403;29;20061;-94
2022/08/30 09:01:21;;;;;;;5.53;1.42;;;24.80;65.90;;;;;;4874792;29;20082;-96
2022/08/30 09:03:50;;;;;;;3.03;1.70;;;24.90;63.00;;;;;;4886149;29;20029;-96
2022/08/30 09:06:44;;;;;;;2.53;1.30;;;25.00;64.30;;;;;;4845075;29;20048;-94
2022/08/30 09:09:12;;;;;;;4.80;1.45;;;25.00;61.60;;;;;;4852279;29;20128;-96
2022/08/30 09:11:41;;;;;;;4.22;2.33;;;25.20;62.60;;;;;;4850734;29;20059;-95
2022/08/30 09:14:21;;;;;;;3.72;1.58;;;25.20;62.60;;;;;;4863938;29;20044;-92
2022/08/30 09:16:57;;;;;;;3.25;1.60;;;25.20;60.80;;;;;;4863714;29;20144;-93
2022/08/30 09:19:40;;;;;;;3.13;1.60;;;25.30;62.30;;;;;;4851881;29;20105;-91
2022/08/30 09:22:33;;;;;;;5.80;1.50;;;25.40;59.90;;;;;;4865733;29;20063;-96
2022/08/30 09:25:12;;;;;;;4.10;1.50;;;25.40;60.20;;;;;;4875362;29;20091;-90
2022/08/30 09:27:45;;;;;;;4.07;1.60;;;25.40;61.50;;;;;;4855663;29;20065;-92
2022/08/30 09:30:25;;;;;;;5.00;1.70;;;25.40;60.80;;;;;;4878356;23;20049;-93
2022/08/30 09:32:56;;;;;;;2.85;1.65;;;25.50;61.00;;;;;;4844318;29;20029;-96
2022/08/30 09:35:45;;;;;;;2.80;1.60;;;25.50;62.00;;;;;;4848561;29;20147;-95
2022/08/30 09:38:18;;;;;;;2.63;1.33;;;25.60;62.90;;;;;;4842187;29;20145;-93
2022/08/30 09:40:49;;;;;;;2.40;1.30;;;25.70;63.30;;;;;;4840901;29;20048;-96
2022/08/30 09:43:16;;;;;;;3.00;1.60;;;25.70;62.10;;;;;;4835420;29;20069;-95
2022/08/30 09:46:05;;;;;;;3.53;1.13;;;25.70;60.80;;;;;;4833306;29;20305;-94
2022/08/30 09:48:43;;;;;;;3.08;1.67;;;25.60;61.10;;;;;;4833964;29;20129;-96
2022/08/30 09:51:40;;;;;;;4.03;1.63;;;25.50;60.90;;;;;;4846655;29;20141;-95
2022/08/30 09:54:40;;;;;;;2.00;1.55;;;25.70;59.70;;;;;;4844737;29;20053;-95
2022/08/30 09:57:45;;;;;;;4.82;1.70;;;25.70;61.40;;;;;;4821651;29;20058;-94
2022/08/30 10:00:27;;;;;;;4.78;1.38;;;25.90;60.30;;;;;;4838946;29;20113;-94
2022/08/30 10:02:58;;;;;;;3.05;1.35;;;26.10;59.80;;;;;;4832410;29;20045;-94
2022/08/30 10:05:50;;;;;;;3.17;1.40;;;26.20;59.50;;;;;;4844253;29;20140;-94
2022/08/30 10:08:27;;;;;;;;;;;26.40;60.20;;;;;;4849314;29;20617;-92
2022/08/30 10:11:00;;;;;;;2.75;1.48;;;26.50;59.60;;;;;;4833020;29;19924;-95
2022/08/30 10:13:49;;;;;;;4.45;1.70;;;26.50;59.30;;;;;;4858531;29;20091;-95
2022/08/30 10:16:45;;;;;;;2.35;1.10;;;26.70;59.30;;;;;;4830560;29;20089;-96
2022/08/30 10:19:36;;;;;;;3.42;1.17;;;26.70;59.40;;;;;;4840613;29;20045;-95
2022/08/30 10:22:17;;;;;;;3.25;1.35;;;26.80;60.50;;;;;;4845089;29;20102;-95
2022/08/30 10:25:12;;;;;;;2.42;1.40;;;26.70;59.90;;;;;;4831612;29;20144;-92
2022/08/30 10:28:13;;;;;;;2.72;1.42;;;26.60;57.80;;;;;;4829771;29;20061;-93
2022/08/30 10:30:48;;;;;;;3.90;1.40;;;26.40;60.20;;;;;;4816056;29;20059;-94
2022/08/30 10:33:23;;;;;;;3.83;1.80;;;26.60;59.50;;;;;;4844555;29;20077;-95
2022/08/30 10:35:58;;;;;;;1.92;1.25;;;26.80;59.70;;;;;;4852875;29;20124;-95
2022/08/30 10:38:37;;;;;;;3.75;2.00;;;26.80;57.90;;;;;;4850096;29;20052;-93
2022/08/30 10:41:30;;;;;;;5.05;1.67;;;26.70;58.80;;;;;;4863592;29;20063;-93
2022/08/30 10:44:14;;;;;;;2.47;1.70;;;26.60;58.40;;;;;;4847773;29;20045;-91
2022/08/30 10:47:08;;;;;;;3.78;1.80;;;26.70;59.00;;;;;;4845958;29;20605;-94
2022/08/30 10:49:44;;;;;;;3.30;1.95;;;26.80;59.10;;;;;;4849170;29;20056;-94
2022/08/30 10:52:34;;;;;;;2.97;1.67;;;26.80;59.30;;;;;;4865297;29;20414;-93
2022/08/30 10:55:09;;;;;;;4.60;1.33;;;27.00;58.40;;;;;;4848546;29;20045;-95
2022/08/30 10:57:40;;;;;;;8.27;2.08;;;27.00;57.70;;;;;;4850385;29;20048;-96
2022/08/30 11:00:21;;;;;;;5.63;1.80;;;27.00;58.20;;;;;;4856108;29;20053;-95
2022/08/30 11:03:00;;;;;;;6.07;2.15;;;27.00;58.60;;;;;;4848485;29;20088;-95
2022/08/30 11:05:40;;;;;;;3.50;1.70;;;26.90;57.80;;;;;;4841032;29;20057;-92
2022/08/30 11:08:23;;;;;;;2.50;1.75;;;26.90;58.40;;;;;;4856749;29;20132;-95
2022/08/30 11:11:18;;;;;;;2.53;1.60;;;26.90;58.60;;;;;;4857367;29;20136;-92
2022/08/30 11:13:48;;;;;;;3.47;1.77;;;26.90;59.40;;;;;;4862589;29;20053;-94
2022/08/30 11:16:32;;;;;;;2.75;1.38;;;27.00;60.50;;;;;;4863995;29;20057;-95
2022/08/30 11:19:00;;;;;;;2.80;1.60;;;27.10;59.50;;;;;;4861299;29;20064;-92
2022/08/30 11:21:37;;;;;;;3.40;1.60;;;27.10;59.30;;;;;;4849217;29;20120;-93
2022/08/30 11:24:19;;;;;;;2.75;2.05;;;27.00;59.30;;;;;;4852970;29;20045;-92
2022/08/30 11:26:47;;;;;;;3.55;1.90;;;27.00;58.80;;;;;;4873091;29;20422;-92
2022/08/30 11:29:32;;;;;;;4.47;1.85;;;27.00;59.70;;;;;;4862304;29;20053;-91
2022/08/30 11:32:12;;;;;;;2.88;1.83;;;26.90;58.20;;;;;;4844648;29;20067;-91
2022/08/30 11:34:46;;;;;;;4.22;1.88;;;26.90;59.30;;;;;;4859821;29;20105;-94
2022/08/30 11:37:22;;;;;;;3.92;1.67;;;26.90;59.50;;;;;;4837438;29;20105;-93
2022/08/30 11:39:55;;;;;;;3.85;1.95;;;27.00;58.80;;;;;;4861811;29;20072;-91
2022/08/30 11:42:33;;;;;;;4.78;1.80;;;27.10;59.80;;;;;;4847898;29;20041;-91
2022/08/30 11:45:23;;;;;;;7.07;1.90;;;27.20;60.50;;;;;;4863793;29;20055;-91
2022/08/30 11:48:04;;;;;;;3.90;1.63;;;27.30;59.20;;;;;;4862352;29;20049;-94
2022/08/30 11:51:18;;;;;;;2.42;1.70;;;27.40;58.40;;;;;;4838256;29;20399;-95
2022/08/30 11:54:02;;;;;;;4.90;1.77;;;27.40;58.80;;;;;;4786597;30;20052;-93
2022/08/30 11:56:42;;;;;;;2.88;1.88;;;27.40;58.60;;;;;;4843864;29;20061;-94
2022/08/30 11:59:45;;;;;;;3.00;1.80;;;27.30;58.10;;;;;;4839801;29;20045;-92
2022/08/30 12:02:42;;;;;;;3.85;1.98;;;27.40;59.70;;;;;;4848545;29;20049;-96
2022/08/30 12:05:41;;;;;;;3.88;1.80;;;27.50;59.80;;;;;;4847981;29;20045;-95
2022/08/30 12:08:27;;;;;;;4.90;1.80;;;27.50;59.30;;;;;;4843777;29;20064;-93
2022/08/30 12:11:33;;;;;;;4.80;1.88;;;27.50;60.40;;;;;;4849579;29;20064;-95
2022/08/30 12:14:03;;;;;;;4.68;1.73;;;27.60;60.10;;;;;;4810070;29;20050;-94
2022/08/30 12:18:26;;;;;;;3.22;2.10;;;27.60;59.40;;;;;;4832448;29;20049;-94
2022/08/30 12:19:32;;;;;;;2.60;1.67;;;27.70;59.80;;;;;;4867032;29;20144;-96
2022/08/30 12:22:04;;;;;;;4.00;2.42;;;27.80;59.30;;;;;;4844578;29;20049;-92
2022/08/30 12:24:39;;;;;;;9.05;2.47;;;27.60;59.50;;;;;;4848338;29;20491;-93
2022/08/30 12:27:27;;;;;;;3.15;1.80;;;27.70;59.80;;;;;;4847260;29;20079;-93
2022/08/30 12:30:02;;;;;;;3.80;2.03;;;27.80;60.30;;;;;;4846240;29;20503;-92
2022/08/30 12:32:31;;;;;;;4.20;2.40;;;27.70;60.00;;;;;;4846689;29;20057;-92
2022/08/30 12:35:01;;;;;;;4.18;2.30;;;27.70;58.90;;;;;;4860405;29;20305;-92
2022/08/30 12:37:37;;;;;;;4.18;2.80;;;27.60;59.40;;;;;;4878783;29;20049;-92
2022/08/30 12:40:22;;;;;;;4.55;2.20;;;27.70;59.50;;;;;;4865750;29;20149;-92
2022/08/30 12:43:00;;;;;;;2.97;2.10;;;27.80;60.40;;;;;;4865133;29;20061;-96
2022/08/30 12:45:34;;;;;;;4.20;2.13;;;27.90;60.90;;;;;;4860230;29;20108;-92
2022/08/30 12:48:07;;;;;;;5.60;2.90;;;27.80;58.70;;;;;;4852117;29;20139;-93
2022/08/30 12:50:52;;;;;;;4.78;2.65;;;27.90;60.60;;;;;;4858321;29;20076;-93
2022/08/30 12:53:44;;;;;;;4.65;3.13;;;27.90;60.20;;;;;;4849882;29;20131;-90
2022/08/30 12:56:15;;;;;;;5.95;3.17;;;27.90;59.70;;;;;;4860272;29;20076;-93
2022/08/30 12:59:01;;;;;;;5.45;2.40;;;27.90;60.30;;;;;;4848602;29;20137;-95
2022/08/30 13:01:34;;;;;;;4.63;2.83;;;27.80;58.70;;;;;;4847797;29;20132;-92
2022/08/30 13:04:21;;;;;;;4.68;2.78;;;27.80;59.90;;;;;;4851344;29;20574;-91
2022/08/30 13:06:52;;;;;;;3.85;2.45;;;27.90;61.10;;;;;;4860916;29;20097;-95
2022/08/30 13:09:42;;;;;;;4.20;2.10;;;28.00;59.20;;;;;;4854461;29;20077;-95
2022/08/30 13:12:21;;;;;;;4.53;2.55;;;28.00;59.30;;;;;;4863835;29;20056;-93
2022/08/30 13:14:49;;;;;;;3.53;2.75;;;28.00;60.30;;;;;;4865275;29;20076;-95
2022/08/30 13:17:18;;;;;;;4.65;2.60;;;28.00;59.70;;;;;;4859541;29;20064;-92